createdAt,value
2022-10-14T00:00:13.807Z,62.50
2022-10-14T00:02:41.669Z,62.50
2022-10-14T00:05:10.144Z,62.40
2022-10-14T00:07:37.993Z,62.50
2022-10-14T00:10:07.363Z,62.50
2022-10-14T00:12:35.799Z,62.50
2022-10-14T00:15:05.928Z,62.50
2022-10-14T00:17:33.788Z,62.50
2022-10-14T00:20:01.849Z,62.50
2022-10-14T00:22:29.654Z,62.50
2022-10-14T00:24:57.648Z,62.50
2022-10-14T00:27:25.478Z,62.50
2022-10-14T00:29:53.308Z,62.50
2022-10-14T00:32:22.522Z,62.50
2022-10-14T00:34:50.323Z,62.60
2022-10-14T00:37:18.169Z,62.50
2022-10-14T00:39:45.982Z,62.40
2022-10-14T00:42:14.838Z,62.50
2022-10-14T00:45:06.125Z,62.50
2022-10-14T00:47:35.346Z,62.60
2022-10-14T00:50:03.985Z,62.50
2022-10-14T00:52:32.076Z,62.40
2022-10-14T00:55:03.026Z,62.40
2022-10-14T00:57:31.565Z,62.60
2022-10-14T01:00:05.385Z,62.50
2022-10-14T01:02:33.258Z,62.60
2022-10-14T01:05:03.754Z,62.60
2022-10-14T01:07:41.413Z,62.70
2022-10-14T01:10:13.866Z,62.70
2022-10-14T01:12:55.866Z,62.60
2022-10-14T01:15:33.120Z,62.70
2022-10-14T01:18:10.649Z,62.70
2022-10-14T01:21:10.203Z,62.60
2022-10-14T01:24:04.984Z,62.70
2022-10-14T01:26:53.575Z,62.70
2022-10-14T01:29:56.463Z,62.50
2022-10-14T01:32:29.526Z,62.40
2022-10-14T01:35:05.928Z,62.30
2022-10-14T01:37:37.973Z,62.50
2022-10-14T01:40:12.697Z,62.40
2022-10-14T01:42:44.069Z,62.40
2022-10-14T01:45:18.158Z,62.40
2022-10-14T01:47:49.320Z,62.40
2022-10-14T01:50:19.469Z,62.40
2022-10-14T01:52:51.867Z,62.40
2022-10-14T01:55:24.182Z,62.40
2022-10-14T01:57:54.971Z,62.40
2022-10-14T02:00:24.205Z,63.20
2022-10-14T02:02:52.101Z,62.40
2022-10-14T02:05:25.173Z,62.40
2022-10-14T02:07:59.478Z,62.50
2022-10-14T02:10:36.157Z,62.60
2022-10-14T02:13:17.503Z,62.60
2022-10-14T02:15:55.882Z,62.60
2022-10-14T02:18:30.725Z,62.60
2022-10-14T02:21:10.249Z,62.60
2022-10-14T02:23:42.327Z,62.60
2022-10-14T02:26:12.024Z,62.60
2022-10-14T02:28:42.664Z,62.60
2022-10-14T02:31:15.533Z,62.70
2022-10-14T02:33:45.537Z,62.80
2022-10-14T02:36:17.826Z,62.70
2022-10-14T02:38:47.632Z,62.80
2022-10-14T02:41:19.743Z,62.80
2022-10-14T02:43:47.743Z,62.70
2022-10-14T02:46:20.997Z,62.80
2022-10-14T02:48:48.878Z,62.80
2022-10-14T02:51:16.773Z,62.80
2022-10-14T02:53:44.646Z,62.80
2022-10-14T02:56:14.002Z,62.80
2022-10-14T02:58:41.852Z,62.80
2022-10-14T03:01:09.660Z,62.80
2022-10-14T03:03:38.843Z,62.80
2022-10-14T03:06:07.123Z,62.80
2022-10-14T03:08:34.973Z,62.80
2022-10-14T03:11:02.804Z,62.80
2022-10-14T03:13:31.413Z,62.80
2022-10-14T03:15:59.317Z,62.90
2022-10-14T03:18:27.208Z,62.90
2022-10-14T03:20:56.353Z,62.90
2022-10-14T03:23:24.192Z,62.90
2022-10-14T03:25:52.074Z,62.90
2022-10-14T03:28:20.114Z,62.90
2022-10-14T03:30:47.976Z,63.00
2022-10-14T03:33:18.635Z,63.00
2022-10-14T03:35:48.297Z,63.00
2022-10-14T03:38:17.432Z,63.00
2022-10-14T03:40:45.726Z,63.10
2022-10-14T03:43:13.530Z,63.00
2022-10-14T03:45:41.386Z,63.00
2022-10-14T03:48:09.649Z,63.00
2022-10-14T03:50:37.433Z,63.00
2022-10-14T03:53:05.297Z,63.00
2022-10-14T03:55:34.477Z,63.00
2022-10-14T03:58:02.360Z,63.00
2022-10-14T04:00:30.250Z,63.20
2022-10-14T04:02:58.074Z,63.00
2022-10-14T04:05:25.880Z,63.10
2022-10-14T04:07:53.668Z,63.10
2022-10-14T04:10:21.481Z,63.10
2022-10-14T04:12:50.750Z,63.00
2022-10-14T04:15:18.692Z,63.10
2022-10-14T04:17:46.529Z,63.10
2022-10-14T04:20:14.366Z,63.00
2022-10-14T04:22:42.196Z,63.00
2022-10-14T04:25:10.953Z,62.80
2022-10-14T04:27:38.814Z,62.80
2022-10-14T04:30:09.297Z,62.80
2022-10-14T04:32:37.094Z,62.90
2022-10-14T04:35:05.361Z,62.80
2022-10-14T04:37:33.153Z,62.80
2022-10-14T04:40:00.950Z,62.90
2022-10-14T04:42:28.758Z,62.90
2022-10-14T04:44:56.577Z,62.90
2022-10-14T04:47:25.757Z,62.90
2022-10-14T04:49:53.553Z,62.80
2022-10-14T04:52:21.531Z,62.80
2022-10-14T04:54:49.516Z,62.80
2022-10-14T04:57:17.356Z,62.80
2022-10-14T04:59:45.165Z,62.80
2022-10-14T05:02:13.144Z,62.70
2022-10-14T05:04:42.334Z,62.70
2022-10-14T05:07:10.183Z,62.70
2022-10-14T05:09:37.993Z,62.70
2022-10-14T05:12:06.037Z,62.70
2022-10-14T05:14:34.940Z,62.70
2022-10-14T05:17:03.106Z,62.70
2022-10-14T05:19:30.902Z,62.70
2022-10-14T05:22:00.048Z,62.70
2022-10-14T05:24:27.854Z,62.80
2022-10-14T05:26:55.669Z,62.70
2022-10-14T05:29:23.484Z,62.70
2022-10-14T05:31:51.477Z,62.70
2022-10-14T05:34:19.403Z,62.70
2022-10-14T05:36:47.310Z,62.70
2022-10-14T05:39:16.451Z,62.80
2022-10-14T05:41:44.234Z,62.80
2022-10-14T05:44:12.308Z,62.80
2022-10-14T05:46:40.119Z,62.80
2022-10-14T05:49:07.943Z,62.90
2022-10-14T05:51:35.767Z,62.90
2022-10-14T05:54:03.597Z,63.00
2022-10-14T05:56:32.862Z,63.00
2022-10-14T05:59:00.675Z,63.10
2022-10-14T06:01:28.531Z,63.00
2022-10-14T06:03:56.359Z,63.00
2022-10-14T06:06:28.701Z,63.00
2022-10-14T06:08:56.886Z,63.00
2022-10-14T06:11:24.903Z,63.00
2022-10-14T06:13:54.818Z,63.00
2022-10-14T06:16:22.653Z,63.10
2022-10-14T06:18:54.245Z,63.10
2022-10-14T06:21:22.532Z,63.10
2022-10-14T06:23:50.472Z,63.30
2022-10-14T06:26:18.481Z,63.30
2022-10-14T06:28:46.359Z,63.40
2022-10-14T06:31:15.653Z,63.50
2022-10-14T06:33:44.996Z,63.50
2022-10-14T06:36:12.943Z,63.60
2022-10-14T06:38:40.809Z,63.60
2022-10-14T06:41:08.690Z,63.60
2022-10-14T06:43:36.596Z,63.80
2022-10-14T06:46:05.218Z,63.90
2022-10-14T06:48:34.392Z,64.00
2022-10-14T06:51:03.293Z,64.20
2022-10-14T06:53:31.325Z,64.20
2022-10-14T06:56:00.562Z,64.40
2022-10-14T06:58:29.313Z,64.60
2022-10-14T07:01:01.475Z,64.80
2022-10-14T07:03:29.303Z,64.90
2022-10-14T07:05:58.665Z,65.00
2022-10-14T07:08:26.442Z,65.00
2022-10-14T07:10:54.241Z,65.00
2022-10-14T07:13:22.037Z,65.10
2022-10-14T07:15:50.126Z,65.20
2022-10-14T07:18:17.944Z,65.40
2022-10-14T07:20:46.701Z,65.60
2022-10-14T07:23:16.080Z,65.90
2022-10-14T07:25:43.900Z,66.10
2022-10-14T07:28:11.940Z,66.20
2022-10-14T07:30:40.179Z,66.10
2022-10-14T07:33:08.388Z,66.00
2022-10-14T07:35:38.822Z,66.80
2022-10-14T07:38:06.645Z,66.60
2022-10-14T07:40:35.846Z,66.90
2022-10-14T07:43:03.646Z,67.00
2022-10-14T07:45:35.484Z,67.10
2022-10-14T07:48:03.365Z,67.40
2022-10-14T07:50:31.180Z,67.70
2022-10-14T07:53:01.398Z,67.60
2022-10-14T07:55:29.508Z,67.30
2022-10-14T07:57:58.677Z,67.10
2022-10-14T08:00:26.505Z,67.00
2022-10-14T08:02:54.961Z,66.90
2022-10-14T08:05:37.512Z,66.70
2022-10-14T08:08:06.945Z,66.60
2022-10-14T08:10:35.041Z,66.60
2022-10-14T08:13:04.601Z,66.40
2022-10-14T08:15:35.248Z,66.30
2022-10-14T08:18:03.032Z,66.00
2022-10-14T08:20:32.250Z,65.70
2022-10-14T08:23:00.136Z,65.40
2022-10-14T08:25:28.028Z,65.40
2022-10-14T08:27:57.457Z,65.40
2022-10-14T08:30:26.680Z,65.40
2022-10-14T08:32:55.154Z,65.30
2022-10-14T08:35:22.985Z,65.40
2022-10-14T08:37:58.133Z,65.40
2022-10-14T08:40:28.522Z,65.30
2022-10-14T08:43:02.186Z,65.30
2022-10-14T08:45:36.372Z,65.40
2022-10-14T08:48:12.533Z,65.30
2022-10-14T08:50:46.778Z,65.50
2022-10-14T08:53:18.575Z,65.80
2022-10-14T08:55:48.986Z,66.10
2022-10-14T08:58:29.130Z,66.80
2022-10-14T09:01:02.277Z,67.40
2022-10-14T09:03:33.908Z,68.00
2022-10-14T09:06:03.987Z,68.20
2022-10-14T09:08:37.982Z,68.50
2022-10-14T09:11:07.648Z,69.10
2022-10-14T09:13:39.194Z,69.90
2022-10-14T09:16:13.356Z,70.60
2022-10-14T09:18:43.473Z,71.00
2022-10-14T09:21:47.780Z,70.90
2022-10-14T09:24:16.517Z,70.30
2022-10-14T09:26:46.511Z,71.70
2022-10-14T09:29:25.626Z,72.40
2022-10-14T09:31:58.191Z,72.10
2022-10-14T09:34:32.408Z,73.80
2022-10-14T09:37:11.577Z,75.10
2022-10-14T09:39:40.868Z,76.50
2022-10-14T09:42:18.524Z,77.90
2022-10-14T09:44:46.365Z,78.00
2022-10-14T09:47:18.989Z,78.90
2022-10-14T09:49:48.972Z,78.70
2022-10-14T09:52:23.891Z,77.80
2022-10-14T09:54:56.158Z,77.10
2022-10-14T09:57:25.715Z,77.50
2022-10-14T09:59:57.506Z,76.90
2022-10-14T10:02:38.133Z,75.90
2022-10-14T10:05:13.887Z,75.00
2022-10-14T10:07:41.691Z,73.80
2022-10-14T10:10:21.219Z,74.70
2022-10-14T10:12:49.025Z,72.90
2022-10-14T10:15:21.157Z,78.40
2022-10-14T10:17:51.321Z,82.50
2022-10-14T10:20:28.070Z,83.10
2022-10-14T10:22:57.181Z,82.30
2022-10-14T10:25:27.912Z,75.30
2022-10-14T10:27:59.768Z,78.40
2022-10-14T10:30:30.390Z,79.20
2022-10-14T10:33:15.567Z,72.30
2022-10-14T10:36:01.987Z,74.70
2022-10-14T10:38:32.621Z,69.40
2022-10-14T10:41:15.873Z,66.40
2022-10-14T10:44:04.487Z,62.50
2022-10-14T10:46:56.061Z,62.50
2022-10-14T10:49:42.887Z,59.70
2022-10-14T10:52:21.512Z,57.50
2022-10-14T10:54:59.934Z,56.70
2022-10-14T10:57:38.753Z,56.20
2022-10-14T11:00:11.941Z,55.90
2022-10-14T11:02:55.980Z,57.60
2022-10-14T11:05:40.041Z,59.30
2022-10-14T11:08:35.325Z,62.10
2022-10-14T11:11:32.938Z,62.40
2022-10-14T11:14:11.310Z,60.10
2022-10-14T11:16:47.304Z,57.90
2022-10-14T11:19:22.692Z,56.30
2022-10-14T11:22:00.260Z,55.40
2022-10-14T11:24:36.526Z,54.60
2022-10-14T11:27:11.199Z,54.30
2022-10-14T11:29:52.195Z,54.00
2022-10-14T11:32:28.098Z,53.70
2022-10-14T11:35:10.573Z,53.40
2022-10-14T11:37:48.814Z,53.30
2022-10-14T11:40:24.244Z,53.70
2022-10-14T11:43:07.481Z,54.10
2022-10-14T11:45:51.349Z,54.00
2022-10-14T11:48:29.860Z,54.00
2022-10-14T11:51:06.274Z,54.20
2022-10-14T11:53:58.109Z,54.40
2022-10-14T11:56:35.223Z,55.20
2022-10-14T11:59:24.126Z,56.00
2022-10-14T12:01:54.998Z,56.60
2022-10-14T12:04:29.263Z,57.70
2022-10-14T12:07:04.920Z,57.90
2022-10-14T12:09:40.111Z,58.10
2022-10-14T12:12:12.554Z,58.40
2022-10-14T12:14:44.340Z,58.30
2022-10-14T12:17:20.498Z,58.40
2022-10-14T12:19:48.747Z,58.00
2022-10-14T12:22:19.511Z,57.90
2022-10-14T12:24:53.021Z,57.70
2022-10-14T12:27:23.180Z,57.50
2022-10-14T12:29:52.957Z,57.20
2022-10-14T12:32:25.645Z,57.10
2022-10-14T12:34:55.067Z,57.00
2022-10-14T12:37:51.063Z,56.90
2022-10-14T12:40:31.381Z,56.80
2022-10-14T12:43:18.121Z,56.90
2022-10-14T12:45:54.027Z,56.80
2022-10-14T12:48:24.526Z,57.00
2022-10-14T12:50:58.265Z,57.10
2022-10-14T12:53:28.431Z,57.10
2022-10-14T12:55:59.918Z,57.00
2022-10-14T12:58:30.977Z,57.00
2022-10-14T13:01:02.604Z,57.00
2022-10-14T13:03:35.288Z,57.10
2022-10-14T13:06:36.208Z,57.20
2022-10-14T13:09:35.444Z,57.50
2022-10-14T13:12:42.099Z,57.60
2022-10-14T13:15:55.772Z,57.40
2022-10-14T13:18:50.525Z,57.60
2022-10-14T13:21:28.935Z,57.70
2022-10-14T13:23:57.775Z,57.70
2022-10-14T13:26:34.521Z,57.70
2022-10-14T13:29:17.485Z,57.80
2022-10-14T13:31:53.411Z,57.80
2022-10-14T13:34:43.037Z,57.80
2022-10-14T13:37:33.386Z,57.80
2022-10-14T13:40:17.350Z,57.80
2022-10-14T13:42:49.761Z,57.80
2022-10-14T13:45:22.021Z,57.90
2022-10-14T13:47:50.880Z,57.90
2022-10-14T13:50:23.280Z,58.00
2022-10-14T13:52:56.330Z,58.10
2022-10-14T13:55:25.499Z,58.10
2022-10-14T13:58:12.905Z,58.00
2022-10-14T14:00:50.377Z,58.10
2022-10-14T14:03:25.391Z,57.90
2022-10-14T14:05:54.321Z,57.80
2022-10-14T14:08:42.298Z,57.60
2022-10-14T14:11:18.440Z,57.50
2022-10-14T14:13:58.904Z,57.30
2022-10-14T14:16:33.130Z,57.30
2022-10-14T14:19:10.274Z,57.30
2022-10-14T14:21:38.970Z,57.20
2022-10-14T14:24:16.723Z,57.30
2022-10-14T14:26:45.481Z,57.50
2022-10-14T14:29:18.251Z,57.50
2022-10-14T14:32:05.641Z,57.70
2022-10-14T14:34:36.633Z,57.70
2022-10-14T14:37:23.490Z,57.80
2022-10-14T14:40:00.253Z,57.80
2022-10-14T14:42:31.729Z,58.00
2022-10-14T14:45:02.678Z,57.80
2022-10-14T14:47:32.524Z,58.00
2022-10-14T14:50:25.500Z,58.00
2022-10-14T14:52:51.312Z,58.10
2022-10-14T14:55:40.757Z,58.10
2022-10-14T14:58:23.073Z,58.50
2022-10-14T15:00:51.650Z,58.40
2022-10-14T15:03:21.570Z,58.20
2022-10-14T15:05:56.973Z,58.30
2022-10-14T15:08:27.302Z,58.50
2022-10-14T15:10:57.513Z,58.50
2022-10-14T15:13:29.239Z,58.40
2022-10-14T15:15:57.177Z,58.40
2022-10-14T15:18:28.674Z,58.40
2022-10-14T15:21:08.133Z,58.60
2022-10-14T15:23:41.116Z,58.70
2022-10-14T15:26:29.557Z,58.60
2022-10-14T15:29:22.269Z,58.70
2022-10-14T15:32:06.441Z,58.60
2022-10-14T15:34:35.715Z,58.70
2022-10-14T15:37:03.554Z,58.50
2022-10-14T15:39:31.333Z,58.50
2022-10-14T15:41:59.121Z,58.60
2022-10-14T15:44:26.918Z,58.70
2022-10-14T15:47:12.372Z,58.70
2022-10-14T15:49:43.499Z,58.70
2022-10-14T15:52:15.458Z,58.60
2022-10-14T15:54:44.226Z,58.70
2022-10-14T15:57:14.031Z,58.60
2022-10-14T15:59:44.546Z,58.70
2022-10-14T16:02:17.688Z,58.60
2022-10-14T16:05:00.850Z,58.80
2022-10-14T16:07:34.957Z,58.80
2022-10-14T16:10:02.828Z,58.70
2022-10-14T16:12:30.616Z,58.80
2022-10-14T16:14:58.967Z,58.70
2022-10-14T16:17:26.817Z,58.80
2022-10-14T16:19:55.973Z,58.80
2022-10-14T16:22:23.789Z,58.90
2022-10-14T16:24:51.561Z,58.90
2022-10-14T16:27:19.601Z,58.90
2022-10-14T16:29:47.801Z,58.90
2022-10-14T16:32:15.584Z,58.80
2022-10-14T16:34:43.384Z,58.80
2022-10-14T16:37:12.499Z,58.90
2022-10-14T16:39:40.314Z,59.00
2022-10-14T16:42:09.164Z,58.90
2022-10-14T16:44:37.200Z,59.00
2022-10-14T16:47:17.036Z,59.10
2022-10-14T16:49:45.992Z,59.10
2022-10-14T16:52:16.143Z,59.10
2022-10-14T16:54:44.298Z,59.20
2022-10-14T16:57:13.325Z,59.20
2022-10-14T16:59:41.226Z,59.20
2022-10-14T17:02:10.981Z,59.10
2022-10-14T17:04:39.352Z,59.00
2022-10-14T17:07:08.741Z,59.00
2022-10-14T17:09:39.297Z,58.90
2022-10-14T17:12:11.184Z,58.90
2022-10-14T17:14:42.856Z,58.80
2022-10-14T17:17:11.962Z,58.90
2022-10-14T17:19:39.913Z,59.00
2022-10-14T17:22:07.738Z,59.00
2022-10-14T17:24:36.888Z,59.10
2022-10-14T17:27:05.293Z,59.20
2022-10-14T17:29:33.406Z,59.20
2022-10-14T17:32:01.193Z,59.20
2022-10-14T17:34:28.993Z,59.30
2022-10-14T17:36:56.861Z,59.20
2022-10-14T17:39:28.539Z,59.30
2022-10-14T17:41:59.003Z,59.30
2022-10-14T17:44:28.651Z,59.30
2022-10-14T17:46:56.894Z,59.30
2022-10-14T17:49:24.693Z,59.30
2022-10-14T17:51:52.507Z,59.30
2022-10-14T17:54:20.389Z,59.20
2022-10-14T17:56:48.319Z,59.30
2022-10-14T17:59:17.551Z,59.30
2022-10-14T18:04:33.570Z,59.30
2022-10-14T18:07:01.432Z,59.30
2022-10-14T18:09:29.283Z,59.30
2022-10-14T18:12:12.979Z,59.40
2022-10-14T18:14:42.835Z,59.40
2022-10-14T18:17:12.479Z,59.50
2022-10-14T18:19:41.044Z,59.40
2022-10-14T18:22:10.871Z,59.40
2022-10-14T18:24:39.209Z,59.30
2022-10-14T18:27:07.525Z,59.30
2022-10-14T18:29:35.354Z,59.30
2022-10-14T18:32:04.674Z,59.40
2022-10-14T18:34:32.959Z,59.50
2022-10-14T18:37:00.925Z,59.50
2022-10-14T18:39:28.810Z,59.50
2022-10-14T18:41:56.618Z,59.50
2022-10-14T18:44:24.608Z,59.60
2022-10-14T18:46:52.896Z,59.60
2022-10-14T18:49:22.056Z,59.60
2022-10-14T18:51:50.536Z,59.70
2022-10-14T18:54:20.147Z,59.70
2022-10-14T18:56:48.596Z,59.70
2022-10-14T18:59:18.733Z,59.70
2022-10-14T19:01:47.751Z,59.70
2022-10-14T19:04:16.662Z,59.70
2022-10-14T19:06:47.013Z,59.80
2022-10-14T19:09:15.305Z,59.80
2022-10-14T19:11:44.557Z,59.80
2022-10-14T19:14:14.210Z,59.80
2022-10-14T19:16:42.709Z,59.80
2022-10-14T19:19:14.267Z,59.90
2022-10-14T19:21:43.211Z,59.90
2022-10-14T19:24:13.781Z,59.80
2022-10-14T19:26:43.878Z,59.80
2022-10-14T19:29:13.976Z,59.80
2022-10-14T19:31:43.501Z,59.80
2022-10-14T19:34:13.221Z,59.80
2022-10-14T19:36:41.575Z,59.90
2022-10-14T19:39:12.448Z,59.90
2022-10-14T19:41:44.688Z,60.00
2022-10-14T19:44:13.437Z,60.00
2022-10-14T19:46:41.872Z,60.00
2022-10-14T19:49:12.819Z,60.00
2022-10-14T19:51:40.758Z,60.10
2022-10-14T19:54:08.599Z,60.00
2022-10-14T19:56:36.423Z,60.00
2022-10-14T19:59:05.676Z,59.90
2022-10-14T20:01:33.684Z,59.90
2022-10-14T20:04:02.974Z,59.90
2022-10-14T20:06:33.622Z,59.90
2022-10-14T20:09:01.452Z,59.90
2022-10-14T20:11:29.435Z,59.80
2022-10-14T20:13:57.314Z,59.90
2022-10-14T20:16:27.321Z,60.00
2022-10-14T20:18:55.611Z,60.10
2022-10-14T20:21:23.653Z,60.00
2022-10-14T20:23:51.553Z,60.00
2022-10-14T20:26:21.593Z,60.00
2022-10-14T20:28:50.004Z,60.00
2022-10-14T20:31:20.436Z,60.10
2022-10-14T20:33:49.735Z,60.20
2022-10-14T20:36:20.468Z,60.20
2022-10-14T20:38:49.014Z,60.20
2022-10-14T20:41:18.733Z,60.10
2022-10-14T20:43:47.445Z,60.20
2022-10-14T20:46:15.698Z,60.10
2022-10-14T20:48:43.916Z,60.10
2022-10-14T20:51:14.905Z,60.10
2022-10-14T20:53:42.825Z,60.90
2022-10-14T20:56:12.419Z,60.10
2022-10-14T20:58:40.592Z,60.10
2022-10-14T21:01:10.492Z,60.10
2022-10-14T21:03:38.793Z,60.10
2022-10-14T21:06:08.568Z,60.20
2022-10-14T21:08:38.230Z,60.20
2022-10-14T21:11:11.945Z,60.20
2022-10-14T21:13:45.453Z,60.30
2022-10-14T21:16:20.173Z,60.10
2022-10-14T21:18:50.386Z,60.20
2022-10-14T21:21:20.233Z,60.10
2022-10-14T21:23:49.809Z,60.00
2022-10-14T21:26:18.093Z,60.10
2022-10-14T21:28:46.267Z,60.00
2022-10-14T21:31:18.695Z,60.10
2022-10-14T21:33:47.575Z,60.10
2022-10-14T21:36:17.067Z,60.10
2022-10-14T21:38:45.004Z,60.20
2022-10-14T21:41:14.268Z,60.30
2022-10-14T21:43:42.353Z,60.30
2022-10-14T21:46:12.254Z,60.20
2022-10-14T21:48:41.305Z,60.30
2022-10-14T21:51:11.278Z,60.20
2022-10-14T21:53:41.246Z,60.30
2022-10-14T21:56:09.689Z,60.30
2022-10-14T21:58:39.588Z,60.30
2022-10-14T22:01:09.394Z,60.20
2022-10-14T22:03:38.642Z,60.30
2022-10-14T22:06:08.941Z,60.40
2022-10-14T22:08:39.284Z,60.40
2022-10-14T22:11:08.228Z,60.30
2022-10-14T22:13:37.697Z,60.30
2022-10-14T22:16:05.987Z,60.30
2022-10-14T22:18:33.811Z,60.30
2022-10-14T22:21:05.863Z,60.30
2022-10-14T22:23:33.827Z,60.40
2022-10-14T22:26:02.741Z,60.40
2022-10-14T22:28:31.573Z,60.40
2022-10-14T22:31:06.289Z,60.40
2022-10-14T22:33:35.449Z,60.70
2022-10-14T22:36:10.733Z,60.50
2022-10-14T22:38:39.618Z,60.60
2022-10-14T22:41:08.476Z,60.40
2022-10-14T22:43:37.470Z,60.40
2022-10-14T22:46:09.145Z,60.50
2022-10-14T22:48:37.120Z,60.50
2022-10-14T22:51:06.307Z,60.40
2022-10-14T22:53:35.024Z,60.50
2022-10-14T22:56:03.603Z,60.60
2022-10-14T22:58:31.406Z,60.40
2022-10-14T23:01:08.257Z,60.40
2022-10-14T23:03:36.571Z,60.60
2022-10-14T23:06:07.058Z,60.40
2022-10-14T23:08:35.738Z,61.20
2022-10-14T23:11:05.206Z,60.50
2022-10-14T23:13:33.056Z,60.40
2022-10-14T23:16:02.777Z,60.40
2022-10-14T23:18:34.589Z,61.20
2022-10-14T23:21:08.964Z,60.60
2022-10-14T23:23:37.278Z,60.70
2022-10-14T23:26:05.475Z,60.40
2022-10-14T23:28:33.295Z,60.40
2022-10-14T23:31:01.209Z,60.60
2022-10-14T23:33:28.984Z,60.60
2022-10-14T23:36:03.913Z,60.60
2022-10-14T23:38:31.845Z,60.70
2022-10-14T23:41:02.546Z,60.50
2022-10-14T23:43:30.889Z,60.60
2022-10-14T23:45:58.822Z,60.70
2022-10-14T23:48:27.201Z,60.70
2022-10-14T23:50:55.197Z,60.70
2022-10-14T23:53:26.284Z,60.80
2022-10-14T23:55:54.529Z,60.90
2022-10-14T23:58:22.448Z,60.90
